Christine M Mcallister — WDB4780 — position and weather

sailwx.info

Track history (hours):
 
Tides and Currents Weather Stations Pressure Air Temp Water Temp Dewpoint Dewpoint Depression Visibility Wind Speed Wind Dir Waves Ship Positions

Christine M Mcallister

Owner: MC ALLISTER TOWING & TRANSPORTATION INC, NY, NY. More information available from US FCC via Universal Licensing System and Coast Guard Vessel Documentation Center.

Last reported at 2018-Jun-19 13:49 UTC. Time now 2018-Jun-23 09:55 UTC.
Position N 25°27' W 079°60'.

; draft 6.2 m.

Type: Pollution control. MMSI: 362707956.

Date/timePositionNaut miles runAvg speedWind from/ knotsBaromVisibWave heightAir tempDewpointWater temp
2018-Jun-19 13:49N 25°27' W 079°60'4 6.5
2018-Jun-19 13:12N 25°31' W 080°00'1 6.4
2018-Jun-19 13:00N 25°32' W 080°01'3 6.5
2018-Jun-19 12:30N 25°35' W 080°01'3 6.6
2018-Jun-19 12:00N 25°39' W 080°02'3 6.8
2018-Jun-19 11:30N 25°42' W 080°03'4 7.1
2018-Jun-19 11:00N 25°45' W 080°04'3 6.9
2018-Jun-19 10:30N 25°49' W 080°04'3 6.9
2018-Jun-19 10:00N 25°52' W 080°04'3 6.8
2018-Jun-19 09:30N 25°56' W 080°03'3 6.8
2018-Jun-19 09:00N 25°59' W 080°03'3 6.7
2018-Jun-19 08:30N 26°02' W 080°02'3 6.7
2018-Jun-19 08:00N 26°06' W 080°02'3 6.6
2018-Jun-19 07:30N 26°09' W 080°02'3 6.4
2018-Jun-19 07:00N 26°12' W 080°01'3 6.2
2018-Jun-19 06:30N 26°15' W 080°01'3 6.2
2018-Jun-19 06:00N 26°18' W 080°01'34 5.4
2018-Jun-18 23:42N 26°52' W 079°59'1 5.2
2018-Jun-18 23:28N 26°54' W 079°59'2 5.2
2018-Jun-18 23:00N 26°56' W 079°59'3 5.8
2018-Jun-18 22:30N 26°59' W 079°59'3 6.4
2018-Jun-18 22:00N 27°02' W 079°59'  
2018-Jun-15 21:23N 27°01' W 079°59'513.1
2018-Jun-15 20:59N 26°56' W 079°59'4211.7
2018-Jun-15 17:27N 26°15' W 080°02'511.4
2018-Jun-15 17:00N 26°10' W 079°60'611.9
2018-Jun-15 16:30N 26°04' W 079°58'611.9
2018-Jun-15 16:00N 25°58' W 079°60'611.9
2018-Jun-15 15:30N 25°53' W 080°02'511.0
2018-Jun-15 15:00N 25°48' W 080°04'510.6
2018-Jun-15 14:30N 25°42' W 080°03'611.5
2018-Jun-15 14:00N 25°37' W 080°03'  
Track history (hours):
 
Tides and Currents Weather Stations Pressure Air Temp Water Temp Dewpoint Dewpoint Depression Visibility Wind Speed Wind Dir Waves Ship Positions

Christine M Mcallister

Owner: MC ALLISTER TOWING & TRANSPORTATION INC, NY, NY. More information available from US FCC via Universal Licensing System and Coast Guard Vessel Documentation Center.

Last reported at 2018-Jun-19 13:49 UTC. Time now 2018-Jun-23 09:55 UTC.
Position N 25°27' W 079°60'.

; draft 6.2 m.

Type: Pollution control. MMSI: 362707956.

Date/timePositionNaut miles runAvg speedWind from/ knotsBaromVisibWave heightAir tempDewpointWater temp
2018-Jun-19 13:49N 25°27' W 079°60'4 6.5
2018-Jun-19 13:12N 25°31' W 080°00'1 6.4
2018-Jun-19 13:00N 25°32' W 080°01'3 6.5
2018-Jun-19 12:30N 25°35' W 080°01'3 6.6
2018-Jun-19 12:00N 25°39' W 080°02'3 6.8
2018-Jun-19 11:30N 25°42' W 080°03'4 7.1
2018-Jun-19 11:00N 25°45' W 080°04'3 6.9
2018-Jun-19 10:30N 25°49' W 080°04'3 6.9
2018-Jun-19 10:00N 25°52' W 080°04'3 6.8
2018-Jun-19 09:30N 25°56' W 080°03'3 6.8
2018-Jun-19 09:00N 25°59' W 080°03'3 6.7
2018-Jun-19 08:30N 26°02' W 080°02'3 6.7
2018-Jun-19 08:00N 26°06' W 080°02'3 6.6
2018-Jun-19 07:30N 26°09' W 080°02'3 6.4
2018-Jun-19 07:00N 26°12' W 080°01'3 6.2
2018-Jun-19 06:30N 26°15' W 080°01'3 6.2
2018-Jun-19 06:00N 26°18' W 080°01'34 5.4
2018-Jun-18 23:42N 26°52' W 079°59'1 5.2
2018-Jun-18 23:28N 26°54' W 079°59'2 5.2
2018-Jun-18 23:00N 26°56' W 079°59'3 5.8
2018-Jun-18 22:30N 26°59' W 079°59'3 6.4
2018-Jun-18 22:00N 27°02' W 079°59'  
2018-Jun-15 21:23N 27°01' W 079°59'513.1
2018-Jun-15 20:59N 26°56' W 079°59'4211.7
2018-Jun-15 17:27N 26°15' W 080°02'511.4
2018-Jun-15 17:00N 26°10' W 079°60'611.9
2018-Jun-15 16:30N 26°04' W 079°58'611.9
2018-Jun-15 16:00N 25°58' W 079°60'611.9
2018-Jun-15 15:30N 25°53' W 080°02'511.0
2018-Jun-15 15:00N 25°48' W 080°04'510.6
2018-Jun-15 14:30N 25°42' W 080°03'611.5
2018-Jun-15 14:00N 25°37' W 080°03'  

Dump ship's entire track history